• Join FlightAware (Why Join?)
  • Login
  • US Flag 
02:09AM EDT


 

Airport Tracker/Info


-or-


 

Live Flight TrackerFlight Track Log ✈ SWA946 ✈ 13-Apr-2013 ✈ KSAN - KSFO

Flight Track Log - Related Links

Times and Time Zones

All times are in EDT time to prevent confusion due to time zone crossing. See the SWA946 flight status page for this flight to view local times or setup timezone preferences in your user account.

Time Position Orientation Groundspeed Altitude Reporting Facility
EDT Latitude Longitude Course Direction KTS MPH feet Rate Location/Type
12:45AM 32.7436 -117.2203 304° West 194 223 1,800  Level Los Angeles Center
12:46AM 32.7744 -117.2739 304° West 197 227 4,200 2,940 Climbing Los Angeles Center
12:47AM 32.8164 -117.3444 305° West 254 292 7,800 3,240 Climbing Los Angeles Center
12:48AM 32.8594 -117.4164 305° West 265 305 10,900 2,880 Climbing Los Angeles Center
12:49AM 32.9142 -117.5061 306° West 321 369 13,700 3,060 Climbing Los Angeles Center
12:51AM 33.0033 -117.5703 329° Northwest 372 428 17,100 3,240 Climbing Los Angeles Center
12:52AM 33.0728 -117.6703 310° West 392 451 20,400 3,060 Climbing Los Angeles Center
12:53AM 33.1433 -117.7778 308° West 408 470 23,400 2,700 Climbing Los Angeles Center
12:54AM 33.2217 -117.8856 311° West 425 489 26,000 2,760 Climbing Los Angeles Center
12:55AM 33.2997 -117.9981 310° West 437 503 29,100 3,000 Climbing Los Angeles Center
12:56AM 33.3758 -118.1078 310° West 433 498 32,100 3,060 Climbing Los Angeles Center
12:57AM 33.4642 -118.2353 310° West 416 479 35,300 2,640 Climbing Los Angeles Center
12:58AM 33.5369 -118.3408 310° West 410 472 37,500 1,980 Climbing Los Angeles Center
12:59AM 33.6097 -118.4472 309° West 407 468 39,400 1,080 Climbing Los Angeles Center
01:00AM 33.6689 -118.5325 310° West 407 468 40,000 240 Climbing Los Angeles Center
01:01AM 33.7575 -118.6592 310° West 409 471 40,000  Level Los Angeles Center
01:02AM 33.8439 -118.7850 310° West 406 467 40,000  Level Los Angeles Center
01:03AM 33.9153 -118.8892 310° West 403 464 40,000  Level Los Angeles Center
01:04AM 33.9869 -118.9953 309° West 407 468 40,000  Level Los Angeles Center
01:05AM 34.0583 -119.1008 309° West 407 468 40,000  Level Los Angeles Center
01:06AM 34.1300 -119.2067 309° West 407 468 40,000  Level Los Angeles Center
01:07AM 34.2006 -119.3114 309° West 404 465 40,000  Level Los Angeles Center
01:08AM 34.2714 -119.4167 309° West 404 465 40,000  Level Los Angeles Center
01:09AM 34.3408 -119.5214 309° West 402 463 40,000  Level Los Angeles Center
01:10AM 34.4106 -119.6253 309° West 399 459 40,000  Level Los Angeles Center
01:11AM 34.4800 -119.7294 309° West 398 458 40,000  Level Los Angeles Center
01:12AM 34.5569 -119.8261 314° West 401 461 40,000  Level Los Angeles Center
01:13AM 34.6372 -119.9081 320° Northwest 413 475 40,000  Level Los Angeles Center
01:14AM 34.7344 -120.0167 317° Northwest 402 463 40,000  Level Los Angeles Center
01:15AM 34.8175 -120.1078 318° Northwest 405 466 40,000  Level Los Angeles Center
01:16AM 34.8997 -120.1986 318° Northwest 404 465 40,000  Level Los Angeles Center
01:17AM 34.9831 -120.2900 318° Northwest 406 467 40,000  Level Los Angeles Center
01:18AM 35.0656 -120.3811 318° Northwest 404 465 40,000  Level Los Angeles Center
01:19AM 35.1492 -120.4739 318° Northwest 407 468 40,000  Level Los Angeles Center
01:20AM 35.2325 -120.5675 317° Northwest 409 471 40,000  Level Los Angeles Center
01:21AM 35.3156 -120.6611 317° Northwest 407 468 40,000  Level Los Angeles Center
01:22AM 35.4069 -120.7403 325° Northwest 405 466 40,000  Level Los Angeles Center
01:23AM 35.4614 -120.7869 325° Northwest 406 467 40,000  Level Oakland Center
01:24AM 35.5522 -120.8692 324° Northwest 404 465 40,000  Level Oakland Center
01:25AM 35.6436 -120.9517 324° Northwest 407 468 40,000 -60 Level Oakland Center
01:26AM 35.7331 -121.0383 322° Northwest 409 471 39,900 -600 Descending Oakland Center
01:27AM 35.8239 -121.1192 324° Northwest 406 467 38,900 -1,020 Descending Oakland Center
01:28AM 35.9150 -121.2025 323° Northwest 407 468 37,900 -960 Descending Oakland Center
01:29AM 36.0081 -121.2886 323° Northwest 415 478 37,000 -960 Descending Oakland Center
01:30AM 36.1017 -121.3683 325° Northwest 404 465 36,000 -960 Descending Oakland Center
01:31AM 36.1936 -121.4531 323° Northwest 408 470 35,100 -960 Descending Oakland Center
01:32AM 36.2861 -121.5392 323° Northwest 414 476 34,100 -1,920 Descending Oakland Center
01:33AM 36.3769 -121.6192 325° Northwest 408 470 31,300 -3,420 Descending Oakland Center
01:33AM 36.4333 -121.6833 318° Northwest 409 471 28,900 -3,420 Descending Northern Cal TRACON
01:34AM 36.5333 -121.7667 326° Northwest 399 459 26,100 -2,820 Descending Northern Cal TRACON
01:35AM 36.6167 -121.8500 321° Northwest 436 502 23,300 -2,820 Descending Northern Cal TRACON
01:36AM 36.6833 -121.9167 321° Northwest 406 467 20,800 -2,640 Descending Northern Cal TRACON
01:37AM 36.7833 -121.9667 338° Northwest 348 400 18,100 -2,520 Descending Northern Cal TRACON
01:38AM 36.8833 -122.0000 345° North 335 386 15,600 -2,520 Descending Northern Cal TRACON
01:39AM 36.9208 -122.0089 349° North 335 386 14,300 -2,460 Descending Oakland Center
01:40AM 37.0083 -122.0317 348° North 325 374 11,900 -1,860 Descending Oakland Center
01:41AM 37.0928 -122.0528 349° North 314 361 10,600 -1,020 Descending Oakland Center
01:42AM 37.1692 -122.0747 347° North 289 333 9,900 -1,080 Descending Oakland Center
01:43AM 37.2394 -122.0933 348° North 265 305 8,500 -1,440 Descending Oakland Center
01:44AM 37.3097 -122.1119 348° North 259 298 7,100 -1,500 Descending Oakland Center
01:45AM 37.3789 -122.1294 349° North 256 295 5,600 -1,200 Descending Oakland Center
01:46AM 37.4469 -122.1486 347° North 253 291 4,700 -900 Descending Oakland Center
01:47AM 37.5067 -122.1644 348° North 231 266 3,800 -1,080 Descending Oakland Center
01:48AM 37.5453 -122.2061 319° Northwest 216 249 2,600 -1,080 Descending Oakland Center
01:49AM 37.5703 -122.2631 299° West 195 224 1,700 -900 Descending Oakland Center
01:50AM 37.5906 -122.3131 297° West 177 204 800 -780 Descending Oakland Center
01:51AM 37.6056 -122.3478 299° West 138 159 200 -600 Descending Oakland Center
01:53AM 37.6167 -122.3667 322° Northwest  Level FlightAware Approximate